sensor_id;sensor_type;location;lat;lon;timestamp;P1;durP1;ratioP1;P2;durP2;ratioP2
28766;SDS011;15921;52.034;20.650;2023-04-01T00:02:18;31.25;;;15.20;;
28766;SDS011;15921;52.034;20.650;2023-04-01T00:04:44;26.23;;;14.82;;
28766;SDS011;15921;52.034;20.650;2023-04-01T00:07:10;31.20;;;16.33;;
28766;SDS011;15921;52.034;20.650;2023-04-01T00:09:36;26.35;;;14.02;;
28766;SDS011;15921;52.034;20.650;2023-04-01T00:12:02;29.00;;;14.85;;
28766;SDS011;15921;52.034;20.650;2023-04-01T00:14:29;27.17;;;15.43;;
28766;SDS011;15921;52.034;20.650;2023-04-01T00:16:55;31.02;;;17.80;;
28766;SDS011;15921;52.034;20.650;2023-04-01T00:19:21;38.50;;;18.10;;
28766;SDS011;15921;52.034;20.650;2023-04-01T00:21:47;32.55;;;17.23;;
28766;SDS011;15921;52.034;20.650;2023-04-01T00:24:13;34.28;;;16.55;;
28766;SDS011;15921;52.034;20.650;2023-04-01T00:26:39;32.80;;;17.13;;
28766;SDS011;15921;52.034;20.650;2023-04-01T00:29:07;30.58;;;15.55;;
28766;SDS011;15921;52.034;20.650;2023-04-01T00:31:33;38.13;;;17.48;;
28766;SDS011;15921;52.034;20.650;2023-04-01T00:33:59;38.58;;;18.08;;
28766;SDS011;15921;52.034;20.650;2023-04-01T00:36:24;29.15;;;17.45;;
28766;SDS011;15921;52.034;20.650;2023-04-01T00:38:50;37.88;;;19.60;;
28766;SDS011;15921;52.034;20.650;2023-04-01T00:41:17;37.95;;;17.52;;
28766;SDS011;15921;52.034;20.650;2023-04-01T00:43:45;38.28;;;18.23;;
28766;SDS011;15921;52.034;20.650;2023-04-01T00:46:13;36.33;;;18.73;;
28766;SDS011;15921;52.034;20.650;2023-04-01T00:48:40;37.72;;;20.52;;
28766;SDS011;15921;52.034;20.650;2023-04-01T00:51:16;35.05;;;19.50;;
28766;SDS011;15921;52.034;20.650;2023-04-01T00:53:47;42.92;;;20.90;;
28766;SDS011;15921;52.034;20.650;2023-04-01T00:56:17;36.72;;;19.95;;
28766;SDS011;15921;52.034;20.650;2023-04-01T00:58:55;39.58;;;19.52;;
28766;SDS011;15921;52.034;20.650;2023-04-01T01:01:25;42.92;;;21.55;;
28766;SDS011;15921;52.034;20.650;2023-04-01T01:03:52;44.42;;;22.10;;
28766;SDS011;15921;52.034;20.650;2023-04-01T01:14:43;37.80;;;19.75;;
28766;SDS011;15921;52.034;20.650;2023-04-01T01:17:17;43.20;;;22.15;;
28766;SDS011;15921;52.034;20.650;2023-04-01T01:22:28;43.67;;;22.73;;
28766;SDS011;15921;52.034;20.650;2023-04-01T01:28:02;44.72;;;23.00;;
28766;SDS011;15921;52.034;20.650;2023-04-01T01:36:01;40.20;;;21.58;;
28766;SDS011;15921;52.034;20.650;2023-04-01T01:38:32;42.20;;;23.13;;
28766;SDS011;15921;52.034;20.650;2023-04-01T01:41:00;52.35;;;24.23;;
28766;SDS011;15921;52.034;20.650;2023-04-01T01:43:30;42.13;;;22.27;;
28766;SDS011;15921;52.034;20.650;2023-04-01T01:46:01;42.05;;;23.27;;
28766;SDS011;15921;52.034;20.650;2023-04-01T01:48:31;50.50;;;24.88;;
28766;SDS011;15921;52.034;20.650;2023-04-01T01:50:58;45.30;;;23.15;;
28766;SDS011;15921;52.034;20.650;2023-04-01T01:53:24;44.88;;;24.13;;
28766;SDS011;15921;52.034;20.650;2023-04-01T01:55:50;48.10;;;25.70;;
28766;SDS011;15921;52.034;20.650;2023-04-01T02:00:50;51.13;;;25.60;;
28766;SDS011;15921;52.034;20.650;2023-04-01T02:03:26;45.30;;;25.92;;
28766;SDS011;15921;52.034;20.650;2023-04-01T02:05:55;42.05;;;25.20;;
28766;SDS011;15921;52.034;20.650;2023-04-01T02:08:26;43.10;;;25.17;;
28766;SDS011;15921;52.034;20.650;2023-04-01T02:10:59;48.80;;;25.88;;
28766;SDS011;15921;52.034;20.650;2023-04-01T02:13:34;42.00;;;23.85;;
28766;SDS011;15921;52.034;20.650;2023-04-01T02:16:35;46.15;;;24.33;;
28766;SDS011;15921;52.034;20.650;2023-04-01T02:19:15;41.00;;;23.85;;
28766;SDS011;15921;52.034;20.650;2023-04-01T02:21:48;45.53;;;25.20;;
28766;SDS011;15921;52.034;20.650;2023-04-01T02:24:16;42.72;;;23.73;;
28766;SDS011;15921;52.034;20.650;2023-04-01T02:26:47;40.60;;;23.13;;
28766;SDS011;15921;52.034;20.650;2023-04-01T02:29:15;42.65;;;23.23;;
28766;SDS011;15921;52.034;20.650;2023-04-01T02:31:44;43.75;;;24.05;;
28766;SDS011;15921;52.034;20.650;2023-04-01T02:34:11;38.80;;;22.92;;
28766;SDS011;15921;52.034;20.650;2023-04-01T02:36:37;42.80;;;22.90;;
28766;SDS011;15921;52.034;20.650;2023-04-01T02:39:04;35.63;;;21.52;;
28766;SDS011;15921;52.034;20.650;2023-04-01T02:41:31;42.85;;;24.08;;
28766;SDS011;15921;52.034;20.650;2023-04-01T02:44:03;38.90;;;22.63;;
28766;SDS011;15921;52.034;20.650;2023-04-01T02:46:29;34.42;;;21.60;;
28766;SDS011;15921;52.034;20.650;2023-04-01T02:48:55;41.58;;;22.67;;
28766;SDS011;15921;52.034;20.650;2023-04-01T02:51:20;44.83;;;21.85;;
28766;SDS011;15921;52.034;20.650;2023-04-01T02:53:46;42.95;;;23.27;;
28766;SDS011;15921;52.034;20.650;2023-04-01T02:56:12;42.80;;;22.77;;
28766;SDS011;15921;52.034;20.650;2023-04-01T02:58:37;44.72;;;24.70;;
28766;SDS011;15921;52.034;20.650;2023-04-01T03:01:03;37.05;;;20.73;;
28766;SDS011;15921;52.034;20.650;2023-04-01T03:03:29;37.67;;;21.00;;
28766;SDS011;15921;52.034;20.650;2023-04-01T03:05:55;41.80;;;22.23;;
28766;SDS011;15921;52.034;20.650;2023-04-01T03:08:21;37.28;;;22.17;;
28766;SDS011;15921;52.034;20.650;2023-04-01T03:10:47;38.15;;;21.67;;
28766;SDS011;15921;52.034;20.650;2023-04-01T03:13:13;37.85;;;20.38;;
28766;SDS011;15921;52.034;20.650;2023-04-01T03:15:38;40.35;;;22.50;;
28766;SDS011;15921;52.034;20.650;2023-04-01T03:18:04;37.65;;;22.23;;
28766;SDS011;15921;52.034;20.650;2023-04-01T03:20:30;39.55;;;22.45;;
28766;SDS011;15921;52.034;20.650;2023-04-01T03:22:56;48.22;;;21.55;;
28766;SDS011;15921;52.034;20.650;2023-04-01T03:25:22;40.83;;;20.20;;
28766;SDS011;15921;52.034;20.650;2023-04-01T03:27:48;38.75;;;20.30;;
28766;SDS011;15921;52.034;20.650;2023-04-01T03:30:14;36.38;;;19.83;;
28766;SDS011;15921;52.034;20.650;2023-04-01T03:32:40;35.55;;;19.10;;
28766;SDS011;15921;52.034;20.650;2023-04-01T03:35:05;37.65;;;19.63;;
28766;SDS011;15921;52.034;20.650;2023-04-01T03:37:32;33.88;;;17.35;;
28766;SDS011;15921;52.034;20.650;2023-04-01T03:39:57;29.52;;;17.55;;
28766;SDS011;15921;52.034;20.650;2023-04-01T03:42:23;27.83;;;16.45;;
28766;SDS011;15921;52.034;20.650;2023-04-01T03:44:49;28.00;;;15.10;;
28766;SDS011;15921;52.034;20.650;2023-04-01T03:47:15;28.75;;;16.83;;
28766;SDS011;15921;52.034;20.650;2023-04-01T03:49:40;31.67;;;17.70;;
28766;SDS011;15921;52.034;20.650;2023-04-01T03:52:08;35.50;;;18.38;;
28766;SDS011;15921;52.034;20.650;2023-04-01T03:54:36;30.85;;;17.77;;
28766;SDS011;15921;52.034;20.650;2023-04-01T03:57:02;29.67;;;16.92;;
28766;SDS011;15921;52.034;20.650;2023-04-01T03:59:28;29.60;;;16.85;;
28766;SDS011;15921;52.034;20.650;2023-04-01T04:01:53;29.23;;;15.93;;
28766;SDS011;15921;52.034;20.650;2023-04-01T04:04:19;36.75;;;16.38;;
28766;SDS011;15921;52.034;20.650;2023-04-01T04:06:45;28.08;;;16.25;;
28766;SDS011;15921;52.034;20.650;2023-04-01T04:09:11;31.20;;;16.00;;
28766;SDS011;15921;52.034;20.650;2023-04-01T04:11:36;26.15;;;15.18;;
28766;SDS011;15921;52.034;20.650;2023-04-01T04:14:02;26.88;;;16.33;;
28766;SDS011;15921;52.034;20.650;2023-04-01T04:16:28;26.63;;;15.23;;
28766;SDS011;15921;52.034;20.650;2023-04-01T04:18:53;26.15;;;15.15;;
28766;SDS011;15921;52.034;20.650;2023-04-01T04:21:19;25.20;;;15.35;;
28766;SDS011;15921;52.034;20.650;2023-04-01T04:23:45;28.88;;;16.63;;
28766;SDS011;15921;52.034;20.650;2023-04-01T04:26:11;29.10;;;15.40;;
28766;SDS011;15921;52.034;20.650;2023-04-01T04:28:39;32.08;;;17.00;;
28766;SDS011;15921;52.034;20.650;2023-04-01T04:31:05;28.00;;;16.27;;
28766;SDS011;15921;52.034;20.650;2023-04-01T04:33:32;27.75;;;16.08;;
28766;SDS011;15921;52.034;20.650;2023-04-01T04:35:59;42.92;;;18.60;;
28766;SDS011;15921;52.034;20.650;2023-04-01T04:38:25;36.08;;;18.67;;
28766;SDS011;15921;52.034;20.650;2023-04-01T04:40:52;28.98;;;16.75;;
28766;SDS011;15921;52.034;20.650;2023-04-01T04:43:18;33.08;;;18.25;;
28766;SDS011;15921;52.034;20.650;2023-04-01T04:45:44;34.65;;;19.05;;
28766;SDS011;15921;52.034;20.650;2023-04-01T04:48:11;31.55;;;19.08;;
28766;SDS011;15921;52.034;20.650;2023-04-01T04:50:41;31.65;;;18.10;;
28766;SDS011;15921;52.034;20.650;2023-04-01T04:53:13;35.80;;;20.60;;
28766;SDS011;15921;52.034;20.650;2023-04-01T04:55:44;35.13;;;19.77;;
28766;SDS011;15921;52.034;20.650;2023-04-01T04:58:10;38.13;;;22.25;;
28766;SDS011;15921;52.034;20.650;2023-04-01T05:00:36;35.45;;;21.27;;
28766;SDS011;15921;52.034;20.650;2023-04-01T05:03:02;39.38;;;21.83;;
28766;SDS011;15921;52.034;20.650;2023-04-01T05:05:28;37.00;;;22.08;;
28766;SDS011;15921;52.034;20.650;2023-04-01T05:07:54;39.42;;;22.50;;
28766;SDS011;15921;52.034;20.650;2023-04-01T05:10:19;34.53;;;20.95;;
28766;SDS011;15921;52.034;20.650;2023-04-01T05:12:46;40.22;;;22.83;;
28766;SDS011;15921;52.034;20.650;2023-04-01T05:15:11;36.95;;;22.17;;
28766;SDS011;15921;52.034;20.650;2023-04-01T05:17:37;36.47;;;22.65;;
28766;SDS011;15921;52.034;20.650;2023-04-01T05:20:03;38.63;;;22.85;;
28766;SDS011;15921;52.034;20.650;2023-04-01T05:22:29;37.50;;;23.30;;
28766;SDS011;15921;52.034;20.650;2023-04-01T05:24:55;39.92;;;24.15;;
28766;SDS011;15921;52.034;20.650;2023-04-01T05:27:21;41.65;;;24.25;;
28766;SDS011;15921;52.034;20.650;2023-04-01T05:29:47;44.38;;;24.67;;
28766;SDS011;15921;52.034;20.650;2023-04-01T05:32:13;38.30;;;23.30;;
28766;SDS011;15921;52.034;20.650;2023-04-01T05:34:38;41.20;;;24.27;;
28766;SDS011;15921;52.034;20.650;2023-04-01T05:37:04;36.97;;;22.17;;
28766;SDS011;15921;52.034;20.650;2023-04-01T05:39:30;41.53;;;24.23;;
28766;SDS011;15921;52.034;20.650;2023-04-01T05:41:55;40.05;;;22.27;;
28766;SDS011;15921;52.034;20.650;2023-04-01T05:44:21;40.38;;;22.88;;
28766;SDS011;15921;52.034;20.650;2023-04-01T05:46:47;42.45;;;24.30;;
28766;SDS011;15921;52.034;20.650;2023-04-01T05:49:12;42.10;;;24.40;;
28766;SDS011;15921;52.034;20.650;2023-04-01T05:51:38;41.00;;;24.50;;
28766;SDS011;15921;52.034;20.650;2023-04-01T05:54:04;42.05;;;25.10;;
28766;SDS011;15921;52.034;20.650;2023-04-01T05:56:31;43.60;;;25.15;;
28766;SDS011;15921;52.034;20.650;2023-04-01T05:58:56;38.05;;;23.70;;
28766;SDS011;15921;52.034;20.650;2023-04-01T06:01:22;40.35;;;24.90;;
28766;SDS011;15921;52.034;20.650;2023-04-01T06:03:48;38.38;;;24.40;;
28766;SDS011;15921;52.034;20.650;2023-04-01T06:06:14;40.05;;;24.23;;
28766;SDS011;15921;52.034;20.650;2023-04-01T06:08:51;40.67;;;23.48;;
28766;SDS011;15921;52.034;20.650;2023-04-01T06:19:24;41.90;;;24.55;;
28766;SDS011;15921;52.034;20.650;2023-04-01T06:46:57;34.17;;;21.10;;
28766;SDS011;15921;52.034;20.650;2023-04-01T06:52:26;29.50;;;19.88;;
28766;SDS011;15921;52.034;20.650;2023-04-01T06:57:56;31.00;;;19.05;;
28766;SDS011;15921;52.034;20.650;2023-04-01T07:00:31;29.13;;;18.05;;
28766;SDS011;15921;52.034;20.650;2023-04-01T07:05:35;28.42;;;16.92;;
28766;SDS011;15921;52.034;20.650;2023-04-01T07:08:02;26.98;;;17.25;;
28766;SDS011;15921;52.034;20.650;2023-04-01T07:13:02;28.13;;;17.15;;
28766;SDS011;15921;52.034;20.650;2023-04-01T07:15:39;29.15;;;19.23;;
28766;SDS011;15921;52.034;20.650;2023-04-01T07:18:10;28.05;;;18.20;;
28766;SDS011;15921;52.034;20.650;2023-04-01T07:20:41;29.98;;;17.35;;
28766;SDS011;15921;52.034;20.650;2023-04-01T07:23:11;29.10;;;17.75;;
28766;SDS011;15921;52.034;20.650;2023-04-01T07:25:44;30.58;;;18.73;;
28766;SDS011;15921;52.034;20.650;2023-04-01T07:28:14;29.52;;;16.75;;
28766;SDS011;15921;52.034;20.650;2023-04-01T07:33:35;26.92;;;17.08;;
28766;SDS011;15921;52.034;20.650;2023-04-01T07:36:24;26.50;;;17.75;;
28766;SDS011;15921;52.034;20.650;2023-04-01T07:42:09;28.15;;;17.27;;
28766;SDS011;15921;52.034;20.650;2023-04-01T08:00:53;28.77;;;16.85;;
28766;SDS011;15921;52.034;20.650;2023-04-01T08:04:00;26.45;;;17.63;;
28766;SDS011;15921;52.034;20.650;2023-04-01T08:06:37;30.02;;;17.45;;
28766;SDS011;15921;52.034;20.650;2023-04-01T08:25:43;29.98;;;19.55;;
28766;SDS011;15921;52.034;20.650;2023-04-01T08:28:19;26.25;;;16.40;;
28766;SDS011;15921;52.034;20.650;2023-04-01T08:30:52;30.27;;;17.90;;
28766;SDS011;15921;52.034;20.650;2023-04-01T08:33:26;28.52;;;18.48;;
28766;SDS011;15921;52.034;20.650;2023-04-01T08:35:56;27.95;;;17.00;;
28766;SDS011;15921;52.034;20.650;2023-04-01T08:38:49;32.45;;;19.23;;
28766;SDS011;15921;52.034;20.650;2023-04-01T08:44:32;33.00;;;18.73;;
28766;SDS011;15921;52.034;20.650;2023-04-01T09:01:26;32.90;;;19.98;;
28766;SDS011;15921;52.034;20.650;2023-04-01T09:04:36;32.72;;;19.95;;
28766;SDS011;15921;52.034;20.650;2023-04-01T09:31:45;26.63;;;16.40;;
28766;SDS011;15921;52.034;20.650;2023-04-01T09:37:19;24.70;;;15.57;;
28766;SDS011;15921;52.034;20.650;2023-04-01T09:39:51;24.85;;;15.98;;
28766;SDS011;15921;52.034;20.650;2023-04-01T09:45:22;22.38;;;13.60;;
28766;SDS011;15921;52.034;20.650;2023-04-01T09:53:41;21.50;;;10.95;;
28766;SDS011;15921;52.034;20.650;2023-04-01T09:56:23;18.20;;;10.20;;
28766;SDS011;15921;52.034;20.650;2023-04-01T09:59:00;18.35;;;10.70;;
28766;SDS011;15921;52.034;20.650;2023-04-01T10:13:31;18.20;;;11.65;;
28766;SDS011;15921;52.034;20.650;2023-04-01T10:27:38;11.55;;;7.50;;
28766;SDS011;15921;52.034;20.650;2023-04-01T10:48:41;13.93;;;9.30;;
28766;SDS011;15921;52.034;20.650;2023-04-01T11:00:10;12.55;;;8.95;;
28766;SDS011;15921;52.034;20.650;2023-04-01T11:23:22;14.48;;;10.13;;
28766;SDS011;15921;52.034;20.650;2023-04-01T11:31:47;12.15;;;8.68;;
28766;SDS011;15921;52.034;20.650;2023-04-01T11:43:13;9.80;;;7.00;;
28766;SDS011;15921;52.034;20.650;2023-04-01T11:46:15;13.15;;;8.25;;
28766;SDS011;15921;52.034;20.650;2023-04-01T12:10:28;13.48;;;7.45;;
28766;SDS011;15921;52.034;20.650;2023-04-01T12:15:55;9.20;;;5.57;;
28766;SDS011;15921;52.034;20.650;2023-04-01T12:32:04;8.30;;;5.63;;
28766;SDS011;15921;52.034;20.650;2023-04-01T12:40:17;8.10;;;5.65;;
28766;SDS011;15921;52.034;20.650;2023-04-01T12:42:57;6.22;;;4.72;;
28766;SDS011;15921;52.034;20.650;2023-04-01T12:45:29;9.07;;;6.00;;
28766;SDS011;15921;52.034;20.650;2023-04-01T12:55:50;6.32;;;4.30;;
28766;SDS011;15921;52.034;20.650;2023-04-01T13:03:50;5.72;;;4.38;;
28766;SDS011;15921;52.034;20.650;2023-04-01T13:15:10;6.60;;;4.50;;
28766;SDS011;15921;52.034;20.650;2023-04-01T13:17:48;6.05;;;4.13;;
28766;SDS011;15921;52.034;20.650;2023-04-01T13:29:57;5.28;;;3.83;;
28766;SDS011;15921;52.034;20.650;2023-04-01T13:32:00;6.68;;;4.90;;
28766;SDS011;15921;52.034;20.650;2023-04-01T13:34:36;6.28;;;4.72;;
28766;SDS011;15921;52.034;20.650;2023-04-01T13:43:12;9.80;;;6.45;;
28766;SDS011;15921;52.034;20.650;2023-04-01T13:48:48;6.88;;;4.90;;
28766;SDS011;15921;52.034;20.650;2023-04-01T13:54:45;7.80;;;5.30;;
28766;SDS011;15921;52.034;20.650;2023-04-01T14:00:25;9.45;;;4.60;;
28766;SDS011;15921;52.034;20.650;2023-04-01T14:03:10;7.43;;;5.10;;
28766;SDS011;15921;52.034;20.650;2023-04-01T14:11:35;6.55;;;3.67;;
28766;SDS011;15921;52.034;20.650;2023-04-01T14:28:35;6.40;;;3.15;;
28766;SDS011;15921;52.034;20.650;2023-04-01T14:45:27;4.10;;;2.70;;
28766;SDS011;15921;52.034;20.650;2023-04-01T14:51:04;4.75;;;3.25;;
28766;SDS011;15921;52.034;20.650;2023-04-01T14:56:42;5.95;;;3.38;;
28766;SDS011;15921;52.034;20.650;2023-04-01T15:27:32;4.93;;;3.20;;
28766;SDS011;15921;52.034;20.650;2023-04-01T15:36:18;4.53;;;2.90;;
28766;SDS011;15921;52.034;20.650;2023-04-01T15:49:52;6.72;;;3.08;;
28766;SDS011;15921;52.034;20.650;2023-04-01T16:19:44;5.43;;;3.47;;
28766;SDS011;15921;52.034;20.650;2023-04-01T16:24:53;7.40;;;4.18;;
28766;SDS011;15921;52.034;20.650;2023-04-01T16:30:03;7.47;;;3.88;;
28766;SDS011;15921;52.034;20.650;2023-04-01T16:35:47;7.82;;;4.15;;
28766;SDS011;15921;52.034;20.650;2023-04-01T16:43:28;10.48;;;4.25;;
28766;SDS011;15921;52.034;20.650;2023-04-01T16:51:48;7.50;;;5.00;;
28766;SDS011;15921;52.034;20.650;2023-04-01T16:57:09;6.75;;;4.50;;
28766;SDS011;15921;52.034;20.650;2023-04-01T17:02:33;10.13;;;5.50;;
28766;SDS011;15921;52.034;20.650;2023-04-01T17:05:09;9.48;;;5.18;;
28766;SDS011;15921;52.034;20.650;2023-04-01T17:10:57;11.02;;;6.45;;
28766;SDS011;15921;52.034;20.650;2023-04-01T17:13:46;12.77;;;7.13;;
28766;SDS011;15921;52.034;20.650;2023-04-01T17:16:24;12.70;;;7.70;;
28766;SDS011;15921;52.034;20.650;2023-04-01T17:35:04;11.88;;;6.05;;
28766;SDS011;15921;52.034;20.650;2023-04-01T17:37:54;11.17;;;5.87;;
28766;SDS011;15921;52.034;20.650;2023-04-01T17:41:07;8.10;;;4.60;;
28766;SDS011;15921;52.034;20.650;2023-04-01T17:46:50;7.60;;;4.30;;
28766;SDS011;15921;52.034;20.650;2023-04-01T18:14:57;8.88;;;4.97;;
28766;SDS011;15921;52.034;20.650;2023-04-01T18:26:02;8.55;;;5.43;;
28766;SDS011;15921;52.034;20.650;2023-04-01T18:28:39;8.02;;;5.05;;
28766;SDS011;15921;52.034;20.650;2023-04-01T18:31:11;9.02;;;4.88;;
28766;SDS011;15921;52.034;20.650;2023-04-01T18:36:33;6.43;;;4.50;;
28766;SDS011;15921;52.034;20.650;2023-04-01T18:39:23;9.05;;;5.55;;
28766;SDS011;15921;52.034;20.650;2023-04-01T18:50:47;10.13;;;6.90;;
28766;SDS011;15921;52.034;20.650;2023-04-01T18:55:51;10.35;;;6.28;;
28766;SDS011;15921;52.034;20.650;2023-04-01T18:58:37;9.68;;;6.05;;
28766;SDS011;15921;52.034;20.650;2023-04-01T19:01:26;9.95;;;7.05;;
28766;SDS011;15921;52.034;20.650;2023-04-01T19:06:50;9.90;;;6.10;;
28766;SDS011;15921;52.034;20.650;2023-04-01T19:21:28;13.60;;;7.75;;
28766;SDS011;15921;52.034;20.650;2023-04-01T19:24:07;12.52;;;8.30;;
28766;SDS011;15921;52.034;20.650;2023-04-01T19:26:55;13.45;;;7.70;;
28766;SDS011;15921;52.034;20.650;2023-04-01T19:40:52;10.70;;;6.90;;
28766;SDS011;15921;52.034;20.650;2023-04-01T19:46:07;11.43;;;6.97;;
28766;SDS011;15921;52.034;20.650;2023-04-01T19:48:44;10.50;;;6.85;;
28766;SDS011;15921;52.034;20.650;2023-04-01T19:57:09;10.60;;;6.60;;
28766;SDS011;15921;52.034;20.650;2023-04-01T19:59:49;9.23;;;5.97;;
28766;SDS011;15921;52.034;20.650;2023-04-01T20:02:33;12.07;;;6.93;;
28766;SDS011;15921;52.034;20.650;2023-04-01T20:05:19;15.48;;;8.93;;
28766;SDS011;15921;52.034;20.650;2023-04-01T20:07:58;15.50;;;9.15;;
28766;SDS011;15921;52.034;20.650;2023-04-01T20:15:59;16.08;;;9.15;;
28766;SDS011;15921;52.034;20.650;2023-04-01T20:18:36;15.10;;;9.30;;
28766;SDS011;15921;52.034;20.650;2023-04-01T20:22:04;13.65;;;8.82;;
28766;SDS011;15921;52.034;20.650;2023-04-01T20:24:20;14.80;;;8.35;;
28766;SDS011;15921;52.034;20.650;2023-04-01T20:27:32;15.43;;;8.55;;
28766;SDS011;15921;52.034;20.650;2023-04-01T20:40:47;11.35;;;7.57;;
28766;SDS011;15921;52.034;20.650;2023-04-01T20:46:19;11.15;;;7.13;;
28766;SDS011;15921;52.034;20.650;2023-04-01T20:57:27;16.58;;;8.10;;
28766;SDS011;15921;52.034;20.650;2023-04-01T21:33:10;10.85;;;7.22;;
28766;SDS011;15921;52.034;20.650;2023-04-01T22:00:42;11.75;;;7.28;;
28766;SDS011;15921;52.034;20.650;2023-04-01T22:11:52;9.38;;;5.18;;
28766;SDS011;15921;52.034;20.650;2023-04-01T22:14:52;11.32;;;5.68;;
28766;SDS011;15921;52.034;20.650;2023-04-01T22:23:49;6.78;;;4.70;;
28766;SDS011;15921;52.034;20.650;2023-04-01T22:26:39;7.38;;;5.15;;
28766;SDS011;15921;52.034;20.650;2023-04-01T22:43:04;7.25;;;4.68;;
28766;SDS011;15921;52.034;20.650;2023-04-01T22:45:46;7.53;;;4.85;;
28766;SDS011;15921;52.034;20.650;2023-04-01T22:48:36;8.40;;;4.38;;
28766;SDS011;15921;52.034;20.650;2023-04-01T22:51:18;6.90;;;4.63;;
28766;SDS011;15921;52.034;20.650;2023-04-01T22:56:41;8.23;;;5.07;;
28766;SDS011;15921;52.034;20.650;2023-04-01T23:02:07;11.32;;;5.35;;
28766;SDS011;15921;52.034;20.650;2023-04-01T23:04:41;9.88;;;5.75;;
28766;SDS011;15921;52.034;20.650;2023-04-01T23:07:32;9.10;;;5.93;;
28766;SDS011;15921;52.034;20.650;2023-04-01T23:12:51;10.68;;;6.07;;
28766;SDS011;15921;52.034;20.650;2023-04-01T23:15:21;9.90;;;5.78;;
28766;SDS011;15921;52.034;20.650;2023-04-01T23:17:53;10.73;;;6.05;;
28766;SDS011;15921;52.034;20.650;2023-04-01T23:26:30;8.88;;;5.00;;
28766;SDS011;15921;52.034;20.650;2023-04-01T23:29:10;9.35;;;4.70;;
28766;SDS011;15921;52.034;20.650;2023-04-01T23:31:41;8.27;;;4.93;;
28766;SDS011;15921;52.034;20.650;2023-04-01T23:36:50;9.07;;;5.53;;
28766;SDS011;15921;52.034;20.650;2023-04-01T23:42:03;8.60;;;5.05;;
28766;SDS011;15921;52.034;20.650;2023-04-01T23:44:38;9.63;;;5.95;;
28766;SDS011;15921;52.034;20.650;2023-04-01T23:47:04;7.50;;;5.10;;
28766;SDS011;15921;52.034;20.650;2023-04-01T23:49:38;7.72;;;4.55;;
28766;SDS011;15921;52.034;20.650;2023-04-01T23:54:56;8.13;;;4.88;;
28766;SDS011;15921;52.034;20.650;2023-04-01T23:57:28;7.30;;;4.72;;
